Palmdale, CA

10:58 AM PDT on October 23, 2014 (GMT -0700)
Palmdale Af Plant 42 | Change Station
CLOSE
Current Station
Airport
Location: Palmdale,
Elevation: 2543 ft
Nearby Weather Stations

Elev 2543 ft 34.63 °N, 118.08 °W | Updated 5 minutes ago

Clear
Clear
71 °F
Feels Like 71 °F
N
0
Wind Variable Wind from North

Today
High -- | Low -- °F
--% Chance of Precip.
Yesterday
High -- | Low -- °F
Precip. -- in
7:04 AM 6:08 PM
Waning Crescent, 0% visible
Pressure 30.05 in
Visibility 10.0 miles
Clouds Clear
Dew Point 30 °F
Humidity 22%
Rainfall 0.00 in
Snow Depth Not available.
UV 5 out of 12
Pollen 3.70 out of 12
Ozone Good
Flu Activity Sporadic
METAR KPMD 231753Z AUTO 00000KT 10SM CLR 22/M01 A3010 RMK AO2 SLP175 T02171011 10217 20094 50007

More Conditions Fewer Conditions

Pressure 30.05 in
Visibility 10.0 miles
Clouds Clear
Dew Point 30 °F
Humidity 22%
Rainfall 0.00 in
Snow Depth Not available.
UV 5 out of 12
Pollen 3.70 out of 12
Ozone Good
Flu Activity Sporadic
METAR KPMD 231753Z AUTO 00000KT 10SM CLR 22/M01 A3010 RMK AO2 SLP175 T02171011 10217 20094 50007

More Conditions Fewer Conditions

10-Day Weather Forecast

Almanac

Astronomy

Oct. 23, 2014 Rise Set
Actual Time 7:04 AM PDT 6:08 PM PDT
Civil Twilight 6:39 AM PDT 6:33 PM PDT
Nautical Twilight 6:09 AM PDT 7:03 PM PDT
Astronomical Twilight 5:40 AM PDT 7:32 PM PDT
Moon 6:49 AM PDT 6:12 PM PDT
Length of Visible Light 11h 54m
Length of Day
11h 03m
Tomorrow will be 2m 0s shorter.
Waning Crescent, 0% of the Moon is Illuminated
Today
Waning Crescent
Oct 23
New
Oct 30
First Quarter
Nov 6
Full
Nov 14
Last Quarter

Today's Extremes

State Highs State Lows

Community

WunderPhotos

Upload Photos

1,764,322 photos uploaded!

WunderBlogs® & News

By Dr. Jeff Masters
Director of Meteorology, Weather Underground
By Kari Strenfel
Meteorologist, Weather Underground
By Christopher C. Burt
Weather Historian, Weather Underground
October 23, 2014
October 23, 2014
October 23, 2014

Nearby

Air Quality

  Air Quality AQ Index Pollutant
Yesterday Good
OZONE
Yesterday Good
PM10
Current Good
OZONE
Thursday Good
PM10
Thursday Good
OZONE
Thursday Good
CO
Thursday Good
NO2

Snow Depth

Station Depth Elevation
Virginia Lakes Ridge 0 in 9200 ft
Leavitt Lake 1 in 9400 ft
Leavitt Meadows 0 in 7200 ft
Sonora Pass 0 in 8800 ft
Summit Meadow 1 in 9122 ft

Earthquake Activity

City Distance Mag. Time & Date
Kettleman City, California 130 miles 2.5 9:08 AM PDT
2014-10-22
Minimum magnitude displayed is 2.5.

Coastal Water Temperatures

Place Temperature
No Stations Reporting

Nearby Weather Stations